createdAt,value
2017-02-03T12:18:33.251Z,23.38
2017-02-03T12:19:11.802Z,23.39
2017-02-03T12:19:50.354Z,23.35
2017-02-03T12:26:16.716Z,26.37
2017-02-03T12:28:21.821Z,25.7
2017-02-03T12:30:26.948Z,25.18
2017-02-03T12:37:15.152Z,20.1
2017-02-03T12:39:41.763Z,17.49
2017-02-03T12:42:08.411Z,16.5
2017-02-03T12:44:34.994Z,14.62
2017-02-03T12:47:01.597Z,14.52
2017-02-03T12:49:28.055Z,13.84
2017-02-03T12:51:54.482Z,13.78
2017-02-03T12:55:56.694Z,13.54
2017-02-03T12:58:23.087Z,13.2
2017-02-03T13:00:49.467Z,12.83
2017-02-03T13:03:15.774Z,12.72
2017-02-03T13:05:42.127Z,13.7
2017-02-03T13:08:08.517Z,13.95
2017-02-03T13:10:34.805Z,13.07
2017-02-03T13:13:01.067Z,12.95
2017-02-03T13:15:18.739Z,13.01
2017-02-03T13:17:44.999Z,13.14
2017-02-03T13:20:11.223Z,13.23
2017-02-03T13:21:55.744Z,13.14
2017-02-03T13:24:21.993Z,12.96
2017-02-03T13:26:48.268Z,12.96
2017-02-03T13:29:14.537Z,14.36
2017-02-03T13:31:40.768Z,14.8
2017-02-03T13:33:51.160Z,15.41
2017-02-03T13:36:17.514Z,15.93
2017-02-03T13:38:43.721Z,14.14
2017-02-03T13:41:09.984Z,15.11
2017-02-03T13:43:36.247Z,14.8
2017-02-03T13:46:02.525Z,14.45
2017-02-03T13:48:28.792Z,13.67
2017-02-03T13:50:55.064Z,13.81
2017-02-03T13:53:21.362Z,13.25
2017-02-03T13:55:47.653Z,13.45
2017-02-03T13:58:13.891Z,13.05
2017-02-03T14:02:16.118Z,12.78
2017-02-03T14:04:42.386Z,12.56
2017-02-03T14:06:18.224Z,12.59
2017-02-03T14:08:44.478Z,12.71
2017-02-03T14:11:10.701Z,12.57
2017-02-03T14:13:36.860Z,12.96
2017-02-03T14:16:03.047Z,13.14
2017-02-03T14:18:13.404Z,12.89
2017-02-03T14:20:31.071Z,12.96
2017-02-03T14:22:57.298Z,12.82
2017-02-03T14:25:23.505Z,13.32
2017-02-03T14:27:49.655Z,14.35
2017-02-03T14:30:15.832Z,15.36
2017-02-03T14:32:42.089Z,16.04
2017-02-03T14:34:59.791Z,16.56
2017-02-03T14:37:25.871Z,17.22
2017-02-03T14:39:52.119Z,16.5
2017-02-03T14:42:18.332Z,16.08
2017-02-03T14:44:44.563Z,15.1
2017-02-03T14:47:10.803Z,15.02
2017-02-03T14:49:37.015Z,15.56
2017-02-03T14:52:03.208Z,16.67
2017-02-03T14:54:29.406Z,16.86
2017-02-03T14:56:55.651Z,17.58
2017-02-03T14:59:21.887Z,17.21
2017-02-03T15:01:48.148Z,16.31
2017-02-03T15:04:14.369Z,17.81
2017-02-03T15:06:40.583Z,16.97
2017-02-03T15:09:06.852Z,17.48
2017-02-03T15:11:33.024Z,15.92
2017-02-03T15:13:59.263Z,15.17
2017-02-03T15:16:25.457Z,15.47
2017-02-03T15:18:09.915Z,15.65
2017-02-03T15:20:36.201Z,15.71
2017-02-03T15:22:37.990Z,15.28
2017-02-03T15:24:55.653Z,13.91
2017-02-03T15:27:21.873Z,13.23
2017-02-03T15:29:23.587Z,13.19
2017-02-03T15:31:49.817Z,13.48
2017-02-03T15:34:16.017Z,13.44
2017-02-03T15:36:42.197Z,14.7
2017-02-03T15:39:08.393Z,15.51
2017-02-03T15:41:34.569Z,15.62
2017-02-03T15:44:00.746Z,14.68
2017-02-03T15:46:26.904Z,13.64
2017-02-03T15:48:53.122Z,12.87
2017-02-03T15:51:19.326Z,13.23
2017-02-03T15:53:45.496Z,13.26
2017-02-03T15:56:04.647Z,12.92
2017-02-03T15:58:30.750Z,13.03
2017-02-03T16:00:56.968Z,13
2017-02-03T16:03:23.154Z,12.62
2017-02-03T16:05:49.333Z,12.75
2017-02-03T16:08:15.550Z,12.82
2017-02-03T16:10:41.742Z,12.79
2017-02-03T16:13:07.909Z,12.82
2017-02-03T16:15:34.085Z,12.71
2017-02-03T16:17:35.808Z,12.68
2017-02-03T16:20:02.019Z,12.7
2017-02-03T16:22:12.452Z,12.65
2017-02-03T16:24:38.669Z,12.39
2017-02-03T16:27:04.857Z,12.21
2017-02-03T16:29:15.222Z,12.05
2017-02-03T16:31:41.417Z,11.83
2017-02-03T16:34:07.602Z,11.8
2017-02-03T16:36:33.783Z,11.83
2017-02-03T16:38:59.938Z,11.94
2017-02-03T16:40:38.680Z,11.95
2017-02-03T16:43:13.218Z,11.95
2017-02-03T16:47:21.308Z,11.99
2017-02-03T16:49:47.500Z,12.01
2017-02-03T16:52:13.665Z,12.13
2017-02-03T16:54:39.843Z,11.94
2017-02-03T16:56:24.305Z,12.02
2017-02-03T16:58:41.947Z,11.65
2017-02-03T17:01:08.086Z,11.78
2017-02-03T17:03:34.248Z,11.54
2017-02-03T17:05:34.721Z,11.42
2017-02-03T17:08:00.847Z,11.11
2017-02-03T17:12:05.467Z,11.03
2017-02-03T17:14:03.432Z,10.89
2017-02-03T17:16:29.562Z,10.64
2017-02-03T17:18:55.643Z,10.59
2017-02-03T17:21:21.741Z,10.78
2017-02-03T17:23:32.074Z,10.41
2017-02-03T17:25:49.601Z,10.32
2017-02-03T17:28:07.102Z,10.68
2017-02-03T17:30:33.170Z,10.7
2017-02-03T17:32:59.210Z,10.42
2017-02-03T17:35:25.287Z,10.27
2017-02-03T17:37:44.247Z,10.44
2017-02-03T17:40:10.364Z,10.4
2017-02-03T17:42:36.441Z,10.34
2017-02-03T17:44:45.420Z,10.47
2017-02-03T17:47:11.440Z,10.56
2017-02-03T17:49:37.480Z,10.47
2017-02-03T17:52:03.518Z,10.23
2017-02-03T17:54:29.532Z,10.2
2017-02-03T17:56:55.578Z,10.05
2017-02-03T17:59:21.568Z,10.09
2017-02-03T18:01:23.252Z,10.25
2017-02-03T18:03:49.336Z,10.22
2017-02-03T18:06:15.394Z,10.29
2017-02-03T18:08:32.892Z,10.36
2017-02-03T18:10:58.927Z,10.29
2017-02-03T18:13:24.956Z,10.09
2017-02-03T18:15:26.618Z,10.2
2017-02-03T18:17:52.703Z,9.93
2017-02-03T18:20:18.756Z,10.01
2017-02-03T18:22:44.821Z,9.99
2017-02-03T18:25:10.871Z,10.02
2017-02-03T18:27:36.855Z,10.14
2017-02-03T18:29:47.248Z,10.11
2017-02-03T18:32:13.256Z,9.58
2017-02-03T18:34:30.771Z,9.43
2017-02-03T18:36:56.761Z,9.68
2017-02-03T18:39:07.081Z,9.87
2017-02-03T18:41:24.549Z,9.76
2017-02-03T18:43:50.556Z,9.75
2017-02-03T18:46:08.023Z,9.64
2017-02-03T18:48:33.969Z,9.54
2017-02-03T18:50:59.923Z,9.61
2017-02-03T18:53:25.879Z,9.53
2017-02-03T18:55:51.835Z,9.6
2017-02-03T18:58:17.774Z,9.54
2017-02-03T19:00:43.674Z,9.57
2017-02-03T19:03:09.570Z,9.6
2017-02-03T19:05:35.483Z,9.56
2017-02-03T19:08:01.418Z,9.32
2017-02-03T19:10:27.329Z,9.31
2017-02-03T19:12:53.223Z,9.13
2017-02-03T19:15:19.174Z,8.98
2017-02-03T19:17:45.137Z,9.02
2017-02-03T19:19:55.469Z,9.15
2017-02-03T19:22:21.482Z,9.29
2017-02-03T19:24:47.450Z,9.11
2017-02-03T19:27:13.449Z,9.23
2017-02-03T19:29:39.385Z,9.33
2017-02-03T19:32:05.335Z,9.5
2017-02-03T19:34:31.325Z,8.77
2017-02-03T19:36:57.278Z,8.76
2017-02-03T19:39:23.195Z,8.8
2017-02-03T19:41:49.152Z,8.81
2017-02-03T19:44:15.101Z,8.76
2017-02-03T19:46:40.992Z,8.71
2017-02-03T19:49:06.882Z,8.7
2017-02-03T19:51:08.527Z,8.66
2017-02-03T19:53:10.260Z,8.62
2017-02-03T19:55:36.194Z,8.59
2017-02-03T19:57:53.547Z,8.76
2017-02-03T20:00:19.452Z,8.81
2017-02-03T20:02:45.361Z,8.81
2017-02-03T20:05:11.305Z,8.81
2017-02-03T20:07:37.197Z,8.66
2017-02-03T20:09:38.845Z,8.63
2017-02-03T20:12:04.804Z,8.66
2017-02-03T20:14:22.211Z,8.71
2017-02-03T20:16:48.169Z,8.55
2017-02-03T20:19:14.120Z,8.36
2017-02-03T20:21:40.025Z,8.33
2017-02-03T20:24:05.960Z,8.45
2017-02-03T20:26:31.886Z,8.48
2017-02-03T20:28:57.832Z,8.44
2017-02-03T20:31:23.793Z,8.45
2017-02-03T20:33:49.734Z,8.58
2017-02-03T20:36:15.690Z,8.52
2017-02-03T20:38:41.649Z,8.56
2017-02-03T20:41:07.591Z,8.66
2017-02-03T20:43:33.521Z,8.65
2017-02-03T20:45:59.484Z,8.71
2017-02-03T20:48:25.442Z,8.66
2017-02-03T20:50:51.401Z,8.71
2017-02-03T20:53:17.373Z,8.66
2017-02-03T20:55:43.310Z,8.65
2017-02-03T20:58:09.239Z,8.73
2017-02-03T20:59:53.675Z,8.79
2017-02-03T21:02:19.651Z,8.73
2017-02-03T21:04:45.582Z,8.53
2017-02-03T21:07:11.485Z,8.52
2017-02-03T21:09:37.394Z,8.55
2017-02-03T21:12:03.299Z,8.53
2017-02-03T21:14:12.107Z,8.65
2017-02-03T21:16:38.010Z,8.83
2017-02-03T21:19:03.913Z,8.89
2017-02-03T21:21:29.821Z,9.02
2017-02-03T21:23:55.732Z,9.01
2017-02-03T21:26:06.025Z,9.01
2017-02-03T21:28:07.657Z,9.11
2017-02-03T21:30:25.066Z,9.13
2017-02-03T21:32:42.452Z,9.18
2017-02-03T21:35:08.392Z,9.38
2017-02-03T21:37:34.312Z,9.32
2017-02-03T21:40:00.267Z,9.31
2017-02-03T21:42:26.160Z,9.43
2017-02-03T21:44:52.049Z,9.5
2017-02-03T21:47:17.950Z,9.57
2017-02-03T21:49:43.871Z,9.6
2017-02-03T21:52:09.785Z,9.57
2017-02-03T21:54:35.706Z,9.5
2017-02-03T21:56:45.976Z,9.58
2017-02-03T21:59:11.965Z,9.57
2017-02-03T22:01:37.869Z,9.57
2017-02-03T22:04:03.817Z,9.53
2017-02-03T22:06:29.757Z,9.5
2017-02-03T22:08:55.669Z,9.58
2017-02-03T22:11:06.033Z,9.57
2017-02-03T22:13:23.447Z,9.54
2017-02-03T22:15:49.361Z,9.46
2017-02-03T22:18:15.274Z,9.51
2017-02-03T22:20:41.187Z,9.43
2017-02-03T22:22:42.836Z,9.43
2017-02-03T22:25:08.786Z,9.39
2017-02-03T22:27:34.747Z,9.39
2017-02-03T22:30:00.724Z,9.39
2017-02-03T22:32:26.614Z,9.38
2017-02-03T22:34:52.563Z,9.35
2017-02-03T22:37:18.470Z,9.36
2017-02-03T22:39:35.877Z,9.2
2017-02-03T22:42:01.773Z,9.36
2017-02-03T22:44:27.691Z,9.32
2017-02-03T22:46:53.595Z,9.35
2017-02-03T22:49:19.516Z,9.29
2017-02-03T22:51:45.459Z,9.38
2017-02-03T22:54:11.395Z,9.38
2017-02-03T22:56:37.315Z,9.38
2017-02-03T22:58:54.646Z,9.35
2017-02-03T23:01:20.548Z,9.2
2017-02-03T23:03:46.442Z,9.2
2017-02-03T23:06:12.310Z,9.32
2017-02-03T23:08:38.199Z,9.31
2017-02-03T23:11:04.134Z,9.35
2017-02-03T23:13:30.062Z,9.32
2017-02-03T23:17:31.748Z,9.15
2017-02-03T23:19:57.688Z,9.21
2017-02-03T23:22:23.635Z,9.21
2017-02-03T23:24:49.547Z,9.36
2017-02-03T23:27:15.502Z,9.24
2017-02-03T23:29:41.409Z,9.35
2017-02-03T23:32:07.335Z,9.33
2017-02-03T23:34:33.245Z,9.38
2017-02-03T23:36:59.160Z,9.32
2017-02-03T23:39:16.538Z,9.48
2017-02-03T23:41:42.448Z,9.47
2017-02-03T23:44:08.344Z,9.6
2017-02-03T23:46:34.232Z,9.58
2017-02-03T23:49:00.155Z,9.58
2017-02-03T23:51:26.075Z,9.57
2017-02-03T23:53:51.932Z,9.51
2017-02-03T23:57:53.600Z,9.56
